Time;durP1;ratioP1;P1;durP2;ratioP2;P2;SDS_P1;SDS_P2;PMS_P1;PMS_P2;Temp;Humidity;BMP_temperature;BMP_pressure;BME280_temperature;BME280_humidity;BME280_pressure;Samples;Min_cycle;Max_cycle;Signal;HPM_P1;HPM_P2
2021/03/06 00:00:31;;;;;;;13.35;7.47;;;;;;;4.15;59.49;101555.53;5034612;28;20086;-61
2021/03/06 00:03:00;;;;;;;14.02;6.97;;;;;;;4.14;60.23;101543.50;5035562;28;20091;-61
2021/03/06 00:05:30;;;;;;;13.95;7.43;;;;;;;4.15;59.87;101550.41;5034671;28;20034;-61
2021/03/06 00:07:55;;;;;;;12.07;7.10;;;;;;;4.15;59.79;101550.41;5034749;28;20036;-60
2021/03/06 00:10:26;;;;;;;20.15;7.80;;;;;;;4.14;60.10;101553.75;5035622;28;20029;-61
2021/03/06 00:12:58;;;;;;;13.40;6.78;;;;;;;4.11;60.07;101559.59;5034578;28;20033;-61
2021/03/06 00:15:26;;;;;;;10.07;7.13;;;;;;;4.11;59.87;101554.47;5034352;28;20437;-61
2021/03/06 00:17:53;;;;;;;16.00;6.88;;;;;;;4.09;59.69;101552.59;5034254;28;20033;-61
2021/03/06 00:20:19;;;;;;;11.15;7.15;;;;;;;4.09;59.84;101550.03;5034629;28;20176;-61
2021/03/06 00:22:52;;;;;;;11.57;7.10;;;;;;;4.09;59.46;101548.34;5034434;28;20076;-61
2021/03/06 00:25:21;;;;;;;11.27;7.53;;;;;;;4.09;60.00;101553.47;5034377;28;20033;-61
2021/03/06 00:27:49;;;;;;;14.82;7.40;;;;;;;4.08;59.67;101548.25;5035167;28;20351;-61
2021/03/06 00:30:19;;;;;;;13.77;6.97;;;;;;;4.06;59.56;101553.25;5034217;28;20037;-61
2021/03/06 00:32:48;;;;;;;14.80;6.93;;;;;;;4.02;60.07;101556.44;5034586;28;20037;-61
2021/03/06 00:35:16;;;;;;;12.27;7.10;;;;;;;4.02;60.11;101555.53;5017402;28;20460;-61
2021/03/06 00:37:45;;;;;;;13.77;7.85;;;;;;;4.01;60.23;101561.44;5034043;28;20476;-60
2021/03/06 00:40:16;;;;;;;14.75;7.20;;;;;;;4.01;59.49;101558.88;5035066;28;20033;-61
2021/03/06 00:42:42;;;;;;;11.10;6.55;;;;;;;4.00;59.93;101560.56;5017738;28;20107;-61
2021/03/06 00:45:10;;;;;;;11.85;6.70;;;;;;;3.98;60.02;101559.56;5017339;28;20068;-61
2021/03/06 00:47:41;;;;;;;14.88;7.78;;;;;;;3.95;59.69;101555.13;5035123;28;20041;-61
2021/03/06 00:50:15;;;;;;;20.50;8.98;;;;;;;3.94;59.28;101557.56;5034323;28;20034;-61
2021/03/06 00:52:40;;;;;;;17.42;9.25;;;;;;;3.95;59.92;101567.06;5033750;28;20038;-61
2021/03/06 00:55:09;;;;;;;18.00;9.10;;;;;;;3.94;59.72;101553.34;5033521;28;20481;-61
2021/03/06 00:57:39;;;;;;;18.48;8.20;;;;;;;3.94;59.27;101553.34;5034082;28;20037;-61
2021/03/06 01:00:10;;;;;;;12.52;7.93;;;;;;;3.93;60.25;101554.13;5034838;28;20038;-61
2021/03/06 01:02:38;;;;;;;14.15;7.80;;;;;;;3.89;59.98;101549.56;5016261;28;20045;-61
2021/03/06 01:05:05;;;;;;;16.75;8.52;;;;;;;3.90;60.11;101555.59;5034811;28;20084;-61
2021/03/06 01:07:30;;;;;;;14.20;7.57;;;;;;;3.89;59.75;101554.72;5032817;28;20083;-61
2021/03/06 01:10:09;;;;;;;19.13;8.48;;;;;;;3.88;59.59;101555.50;5035127;28;20143;-60
2021/03/06 01:12:35;;;;;;;14.52;7.95;;;;;;;3.90;59.98;101546.22;5034754;28;20091;-61
2021/03/06 01:15:04;;;;;;;17.33;6.80;;;;;;;3.90;60.01;101553.00;5033321;28;20452;-61
2021/03/06 01:17:30;;;;;;;14.30;7.70;;;;;;;3.93;60.08;101548.09;5016885;28;20132;-61
2021/03/06 01:19:59;;;;;;;12.23;6.10;;;;;;;3.90;59.95;101548.78;5049633;28;20492;-63
2021/03/06 01:22:27;;;;;;;13.85;7.32;;;;;;;3.92;60.04;101546.31;5034156;28;20570;-61
2021/03/06 01:24:58;;;;;;;11.30;6.07;;;;;;;3.90;59.98;101547.88;5034474;28;20037;-61
2021/03/06 01:27:24;;;;;;;13.43;6.75;;;;;;;3.90;59.72;101540.19;5033131;28;20443;-61
2021/03/06 01:29:49;;;;;;;16.58;7.93;;;;;;;3.90;59.78;101546.22;5049281;28;20037;-61
2021/03/06 01:32:23;;;;;;;13.75;8.18;;;;;;;3.91;60.03;101547.09;5033187;28;20083;-61
2021/03/06 01:34:49;;;;;;;11.98;7.38;;;;;;;3.88;59.54;101540.09;5033083;28;20041;-61
2021/03/06 01:37:18;;;;;;;12.10;7.25;;;;;;;3.89;59.94;101544.44;5033785;28;20029;-61
2021/03/06 01:39:46;;;;;;;14.77;7.32;;;;;;;3.91;60.03;101541.97;5032669;28;20041;-61
2021/03/06 01:42:21;;;;;;;14.07;8.23;;;;;;;3.89;59.80;101541.88;5034353;28;20061;-61
2021/03/06 01:44:52;;;;;;;16.08;8.18;;;;;;;3.89;59.80;101536.75;5032788;28;20126;-61
2021/03/06 01:47:23;;;;;;;13.15;7.38;;;;;;;3.89;59.58;101535.88;5032558;28;20108;-61
2021/03/06 01:49:49;;;;;;;15.43;7.13;;;;;;;3.90;59.68;101535.97;5034197;28;20060;-61
2021/03/06 01:52:15;;;;;;;15.98;7.28;;;;;;;3.89;59.94;101528.19;5033824;28;20480;-61
2021/03/06 01:54:41;;;;;;;11.00;7.05;;;;;;;3.87;59.64;101524.63;5032738;28;20037;-61
2021/03/06 01:57:15;;;;;;;18.00;7.30;;;;;;;3.86;59.73;101531.41;5033788;28;20060;-61
2021/03/06 01:59:40;;;;;;;15.93;7.10;;;;;;;3.86;59.44;101531.41;5032501;28;20037;-62
2021/03/06 02:02:15;;;;;;;12.88;7.13;;;;;;;3.84;59.15;101526.97;5032179;28;20084;-60
2021/03/06 02:04:46;;;;;;;26.50;7.10;;;;;;;3.83;59.70;101533.75;5033279;28;20469;-61
2021/03/06 02:07:15;;;;;;;11.98;7.43;;;;;;;3.83;59.96;101522.63;5032319;28;20128;-61
2021/03/06 02:09:43;;;;;;;13.05;7.20;;;;;;;3.83;60.20;101520.94;5033582;28;20060;-61
2021/03/06 02:12:27;;;;;;;11.48;7.40;;;;;;;3.81;59.66;101514.84;5032436;28;20076;-61
2021/03/06 02:14:58;;;;;;;12.43;7.60;;;;;;;3.81;59.76;101512.28;5032657;28;20034;-60
2021/03/06 02:17:30;;;;;;;10.85;7.00;;;;;;;3.79;59.28;101512.16;5032030;28;20037;-61
2021/03/06 02:20:34;;;;;;;15.75;7.57;;;;;;;3.79;59.66;101513.84;5031579;28;20033;-61
2021/03/06 02:23:31;;;;;;;13.25;6.78;;;;;;;3.77;59.70;101513.72;5029937;28;20058;-61
2021/03/06 02:26:50;;;;;;;11.20;6.63;;;;;;;3.76;59.93;101505.94;5011941;28;20493;-61
2021/03/06 02:29:37;;;;;;;13.05;7.82;;;;;;;3.75;59.17;101510.16;4994669;28;20496;-61
2021/03/06 02:32:10;;;;;;;14.88;7.88;;;;;;;3.73;59.79;101508.28;5011416;28;20534;-61
2021/03/06 02:34:45;;;;;;;10.90;7.15;;;;;;;3.73;59.41;101503.16;5022268;28;20049;-61
2021/03/06 02:37:21;;;;;;;11.00;7.10;;;;;;;3.72;59.45;101507.41;5033863;28;20128;-61
2021/03/06 02:39:57;;;;;;;;;;;;;;;3.67;59.57;101506.22;5033570;28;20135;-61
2021/03/06 02:42:29;;;;;;;10.65;7.38;;;;;;;3.70;59.64;101495.25;5032375;28;19916;-61
2021/03/06 02:44:57;;;;;;;12.80;8.13;;;;;;;3.72;59.85;101502.28;5032345;28;20036;-60
2021/03/06 02:47:29;;;;;;;16.15;8.60;;;;;;;3.72;59.63;101502.28;5032010;28;20559;-61
2021/03/06 02:49:59;;;;;;;11.60;8.00;;;;;;;3.73;59.61;101508.28;5031558;28;20073;-61
2021/03/06 02:52:31;;;;;;;13.25;8.63;;;;;;;3.72;59.99;101503.94;5033720;28;20041;-61
2021/03/06 02:55:06;;;;;;;14.68;8.38;;;;;;;3.73;59.49;101510.84;5032055;28;20400;-61
2021/03/06 02:57:32;;;;;;;11.68;8.13;;;;;;;3.73;59.87;101504.06;5031873;28;20103;-61
2021/03/06 03:00:12;;;;;;;17.20;8.88;;;;;;;3.71;59.93;101515.00;5031957;28;20120;-61
2021/03/06 03:03:01;;;;;;;14.18;7.57;;;;;;;3.70;59.49;101513.22;5033073;28;20397;-61
2021/03/06 03:05:37;;;;;;;13.32;8.70;;;;;;;3.68;59.63;101509.66;5033070;28;20492;-61
2021/03/06 03:08:17;;;;;;;11.60;8.25;;;;;;;3.66;60.00;101509.56;5031647;28;20037;-60
2021/03/06 03:10:51;;;;;;;12.10;8.07;;;;;;;3.65;59.42;101510.34;5031942;28;20048;-61
2021/03/06 03:13:52;;;;;;;13.82;8.65;;;;;;;3.62;59.67;101505.00;5032265;28;20033;-61
2021/03/06 03:16:34;;;;;;;9.57;7.43;;;;;;;3.63;59.46;101511.91;5024615;28;20053;-61
2021/03/06 03:19:12;;;;;;;17.27;9.00;;;;;;;3.62;59.85;101505.00;5031748;28;20485;-61
2021/03/06 03:21:49;;;;;;;11.57;7.55;;;;;;;3.60;59.52;101507.47;5031634;28;20084;-61
2021/03/06 03:24:19;;;;;;;11.00;7.50;;;;;;;3.61;59.73;101509.25;5031901;28;20493;-61
2021/03/06 03:26:52;;;;;;;11.88;7.82;;;;;;;3.59;59.90;101507.34;5031914;28;20034;-61
2021/03/06 03:29:20;;;;;;;13.00;7.57;;;;;;;3.58;59.47;101514.16;5033419;28;20061;-61
2021/03/06 03:31:49;;;;;;;17.65;8.48;;;;;;;3.58;59.57;101513.28;5036418;28;20033;-61
2021/03/06 03:34:22;;;;;;;11.85;8.40;;;;;;;3.54;59.47;101512.16;5036507;28;20058;-61
2021/03/06 03:36:51;;;;;;;11.45;7.22;;;;;;;3.54;59.51;101517.28;5036659;28;20037;-61
2021/03/06 03:39:23;;;;;;;13.68;8.27;;;;;;;3.53;59.95;101514.66;5035234;28;20128;-60
2021/03/06 03:41:49;;;;;;;15.00;8.23;;;;;;;3.52;59.86;101518.00;5036211;28;20045;-61
2021/03/06 03:44:18;;;;;;;10.00;7.57;;;;;;;3.50;60.05;101511.09;5035016;28;20160;-61
2021/03/06 03:46:47;;;;;;;14.88;8.32;;;;;;;3.50;60.03;101517.91;5035937;28;20041;-61
2021/03/06 03:49:21;;;;;;;9.68;6.90;;;;;;;3.48;59.58;101517.78;5034409;28;20056;-61
2021/03/06 03:51:50;;;;;;;12.88;8.43;;;;;;;3.49;59.67;101526.38;5036053;28;20030;-61
2021/03/06 03:54:19;;;;;;;10.95;7.72;;;;;;;3.48;59.94;101511.78;5036542;28;20495;-61
2021/03/06 03:56:47;;;;;;;16.15;8.57;;;;;;;3.47;59.60;101515.13;5036106;28;20065;-61
2021/03/06 03:59:19;;;;;;;17.63;8.02;;;;;;;3.45;59.27;101507.31;5018426;28;20152;-61
2021/03/06 04:01:51;;;;;;;13.75;8.13;;;;;;;3.46;60.08;101519.34;5017690;28;20041;-60
2021/03/06 04:04:28;;;;;;;17.65;9.50;;;;;;;3.45;59.36;101525.25;5035867;28;20046;-61
2021/03/06 04:07:01;;;;;;;12.90;8.38;;;;;;;3.44;59.83;101523.47;5034819;28;20059;-61
2021/03/06 04:09:35;;;;;;;10.50;8.07;;;;;;;3.44;59.43;101525.16;5035573;28;20040;-61
2021/03/06 04:12:00;;;;;;;;;;;;;;;3.39;59.47;101522.28;5036074;28;20112;-61
2021/03/06 04:14:26;;;;;;;11.52;7.63;;;;;;;3.39;59.85;101523.94;5035568;28;19952;-60
2021/03/06 04:16:55;;;;;;;12.15;7.97;;;;;;;3.40;60.06;101523.16;5035897;28;20042;-61
2021/03/06 04:19:20;;;;;;;13.35;8.60;;;;;;;3.37;60.02;101526.41;5017801;28;20404;-61
2021/03/06 04:21:46;;;;;;;12.45;8.65;;;;;;;3.34;59.66;101524.53;5034381;28;20041;-62
2021/03/06 04:24:11;;;;;;;10.52;7.43;;;;;;;3.35;59.69;101527.97;5034071;28;20075;-61
2021/03/06 04:26:43;;;;;;;10.32;7.63;;;;;;;3.33;59.68;101533.00;5035510;28;20042;-61
2021/03/06 04:29:14;;;;;;;9.50;7.32;;;;;;;3.32;59.69;101533.78;5035278;28;20512;-60
2021/03/06 04:31:49;;;;;;;12.85;7.93;;;;;;;3.29;59.54;101536.13;5034288;28;20045;-61
2021/03/06 04:34:19;;;;;;;11.70;8.02;;;;;;;3.31;59.61;101547.38;5017713;28;20404;-61
2021/03/06 04:36:49;;;;;;;16.77;7.30;;;;;;;3.31;59.61;101541.34;5033957;28;20049;-61
2021/03/06 04:39:20;;;;;;;9.60;7.25;;;;;;;3.29;59.73;101546.38;5034279;28;20033;-61
2021/03/06 04:41:49;;;;;;;14.07;8.35;;;;;;;3.29;59.82;101543.81;5033066;28;20511;-61
2021/03/06 04:44:18;;;;;;;15.75;9.32;;;;;;;3.29;59.78;101541.25;5034826;28;20112;-61
2021/03/06 04:46:46;;;;;;;12.27;9.02;;;;;;;3.28;60.07;101536.91;5033660;28;20492;-60
2021/03/06 04:49:19;;;;;;;12.95;8.93;;;;;;;3.29;59.36;101543.81;5033896;28;20034;-61
2021/03/06 04:51:45;;;;;;;10.32;8.10;;;;;;;3.27;59.76;101542.81;5035071;28;20065;-61
2021/03/06 04:54:13;;;;;;;15.43;8.38;;;;;;;3.26;59.83;101535.91;5033475;28;20041;-60
2021/03/06 04:56:41;;;;;;;15.40;8.85;;;;;;;3.26;59.53;101540.16;5034561;28;20038;-60
2021/03/06 04:59:09;;;;;;;15.45;8.57;;;;;;;3.25;60.00;101538.38;5034845;28;20083;-60
2021/03/06 05:01:38;;;;;;;13.50;8.18;;;;;;;3.23;59.39;101540.81;5033495;28;20111;-61
2021/03/06 05:04:09;;;;;;;12.20;8.57;;;;;;;3.22;59.42;101533.91;5033567;28;20092;-60
2021/03/06 05:06:40;;;;;;;14.38;8.50;;;;;;;3.20;59.45;101536.38;5034983;28;20501;-60
2021/03/06 05:09:08;;;;;;;11.38;8.02;;;;;;;3.19;59.65;101534.59;5034764;28;20060;-60
2021/03/06 05:11:33;;;;;;;12.18;7.88;;;;;;;3.18;59.87;101537.06;5034498;28;20044;-60
2021/03/06 05:14:02;;;;;;;12.73;8.43;;;;;;;3.16;60.06;101547.19;5034594;28;20033;-60
2021/03/06 05:16:30;;;;;;;14.32;8.75;;;;;;;3.15;59.81;101545.41;5034486;28;20034;-61
2021/03/06 05:18:58;;;;;;;12.23;8.80;;;;;;;3.13;59.97;101548.66;5034586;28;20033;-61
2021/03/06 05:21:24;;;;;;;13.32;7.78;;;;;;;3.12;59.66;101558.00;5033201;28;20039;-61
2021/03/06 05:23:49;;;;;;;15.05;8.50;;;;;;;3.12;59.78;101557.13;5033276;28;20124;-61
2021/03/06 05:26:17;;;;;;;13.45;8.18;;;;;;;3.11;60.02;101551.13;5034288;28;20037;-61
2021/03/06 05:28:42;;;;;;;15.07;8.85;;;;;;;3.11;59.76;101547.66;5034382;28;20448;-62
2021/03/06 05:31:08;;;;;;;11.00;7.75;;;;;;;3.07;59.75;101550.78;5033054;28;20041;-60
2021/03/06 05:33:33;;;;;;;13.63;8.25;;;;;;;3.07;60.06;101549.13;5033225;28;20091;-60
2021/03/06 05:36:05;;;;;;;15.05;9.27;;;;;;;3.05;59.57;101553.25;5034231;28;20029;-60
2021/03/06 05:38:39;;;;;;;12.25;8.18;;;;;;;3.05;59.57;101551.56;5034386;28;20075;-61
2021/03/06 05:41:08;;;;;;;10.25;7.70;;;;;;;3.03;59.80;101550.59;5033715;28;20040;-61
2021/03/06 05:43:37;;;;;;;14.63;8.52;;;;;;;3.03;59.93;101549.69;5033520;28;20117;-60
2021/03/06 05:46:06;;;;;;;13.18;8.88;;;;;;;3.03;59.65;101550.59;5034230;28;20072;-60
2021/03/06 05:48:32;;;;;;;12.40;9.15;;;;;;;3.02;59.63;101553.94;5034017;28;20048;-60
2021/03/06 05:51:02;;;;;;;15.13;9.23;;;;;;;3.03;59.93;101544.56;5033952;28;20397;-61
2021/03/06 05:53:38;;;;;;;11.82;8.52;;;;;;;3.00;59.62;101554.56;5033939;28;20037;-60
2021/03/06 05:56:13;;;;;;;15.20;7.72;;;;;;;3.01;59.82;101554.69;5033811;28;20034;-60
2021/03/06 05:58:43;;;;;;;12.73;8.60;;;;;;;3.00;60.13;101558.03;5032171;28;20029;-61
2021/03/06 06:01:13;;;;;;;12.90;9.02;;;;;;;3.00;60.07;101557.13;5033948;28;20030;-60
2021/03/06 06:03:41;;;;;;;15.32;9.60;;;;;;;2.98;59.92;101554.47;5033142;28;20455;-60
2021/03/06 06:06:12;;;;;;;11.60;8.55;;;;;;;2.99;59.65;101556.25;5033506;28;20128;-60
2021/03/06 06:08:38;;;;;;;16.42;9.85;;;;;;;3.01;59.95;101553.78;5033418;28;20048;-60
2021/03/06 06:11:04;;;;;;;19.80;10.32;;;;;;;2.99;59.97;101551.13;5032678;28;20116;-60
2021/03/06 06:13:32;;;;;;;13.68;9.38;;;;;;;2.98;60.03;101546.78;5032380;28;20116;-61
2021/03/06 06:15:58;;;;;;;14.85;8.68;;;;;;;2.97;59.81;101551.78;5032337;28;20033;-60
2021/03/06 06:18:29;;;;;;;12.95;9.18;;;;;;;2.95;59.56;101545.69;5033381;28;20090;-60
2021/03/06 06:20:57;;;;;;;16.48;10.55;;;;;;;2.95;59.68;101546.56;5032298;28;20029;-60
2021/03/06 06:23:26;;;;;;;17.17;9.65;;;;;;;2.96;59.57;101550.91;5032007;28;20037;-60
2021/03/06 06:25:54;;;;;;;16.08;10.18;;;;;;;2.96;60.13;101550.03;5032514;28;20128;-60
2021/03/06 06:28:26;;;;;;;13.02;8.23;;;;;;;2.96;59.93;101548.34;5033397;28;20116;-60
2021/03/06 06:31:27;;;;;;;17.20;10.05;;;;;;;2.94;59.75;101544.78;5033259;28;20067;-60
2021/03/06 06:33:55;;;;;;;23.00;9.77;;;;;;;2.94;60.00;101549.91;4975295;28;20086;-60
2021/03/06 06:36:38;;;;;;;15.05;9.20;;;;;;;2.94;59.68;101551.59;5008040;28;20409;-61
2021/03/06 06:39:06;;;;;;;19.93;11.40;;;;;;;2.95;60.12;101553.38;5033205;28;20476;-60
2021/03/06 06:41:53;;;;;;;22.90;12.48;;;;;;;2.94;59.90;101562.72;5033190;28;20116;-60
2021/03/06 06:44:23;;;;;;;20.10;13.75;;;;;;;2.96;60.04;101565.41;5033532;28;20048;-60
2021/03/06 06:46:53;;;;;;;22.40;14.52;;;;;;;2.97;59.79;101564.59;5032153;28;20033;-60
2021/03/06 06:49:19;;;;;;;32.20;16.80;;;;;;;2.95;59.73;101564.50;5033467;28;20065;-60
2021/03/06 06:52:05;;;;;;;25.00;17.67;;;;;;;2.96;60.07;101561.16;5033309;28;20480;-60
2021/03/06 06:54:33;;;;;;;23.60;16.75;;;;;;;2.97;59.95;101573.19;5033250;28;20038;-61
2021/03/06 06:57:14;;;;;;;21.30;14.93;;;;;;;2.97;60.17;101574.84;5033221;28;20038;-60
2021/03/06 07:00:00;;;;;;;22.38;13.23;;;;;;;2.98;59.98;101579.19;5032018;28;20030;-60
2021/03/06 07:02:27;;;;;;;21.17;12.23;;;;;;;2.98;60.12;101577.53;5031011;28;20141;-60
2021/03/06 07:04:58;;;;;;;15.18;10.18;;;;;;;3.01;60.29;101588.00;5049833;28;20417;-61
2021/03/06 07:07:39;;;;;;;15.85;10.60;;;;;;;3.02;59.83;101587.22;5035798;28;20033;-60
2021/03/06 07:10:12;;;;;;;13.20;8.75;;;;;;;3.02;60.00;101587.22;5036179;28;20033;-60
2021/03/06 07:12:54;;;;;;;15.73;8.82;;;;;;;3.03;59.98;101585.53;5036165;28;20048;-60
2021/03/06 07:15:21;;;;;;;25.65;9.07;;;;;;;3.07;60.16;101584.06;5019016;28;20056;-62
2021/03/06 07:17:56;;;;;;;15.65;11.05;;;;;;;3.06;59.91;101593.44;5037004;28;20124;-61
2021/03/06 07:20:26;;;;;;;15.65;8.98;;;;;;;3.05;60.21;101595.09;5037304;28;20038;-61
2021/03/06 07:22:58;;;;;;;14.38;8.88;;;;;;;3.07;60.43;101594.31;5035359;28;20037;-60
2021/03/06 07:25:26;;;;;;;15.20;8.60;;;;;;;3.10;60.55;101599.66;5036802;28;20481;-61
2021/03/06 07:27:55;;;;;;;13.75;8.90;;;;;;;3.11;60.42;101599.81;5036625;28;20125;-61
2021/03/06 07:30:23;;;;;;;14.45;8.18;;;;;;;3.15;60.31;101601.78;5036554;28;20060;-60
2021/03/06 07:32:56;;;;;;;12.52;8.27;;;;;;;3.17;60.29;101591.66;5035332;28;20033;-60
2021/03/06 07:35:27;;;;;;;18.73;11.05;;;;;;;3.19;60.10;101605.47;5035589;28;20112;-61
2021/03/06 07:37:58;;;;;;;19.27;9.93;;;;;;;3.20;60.16;101597.88;5035051;28;20121;-60
2021/03/06 07:40:32;;;;;;;12.55;8.63;;;;;;;3.21;60.32;101598.75;5035267;28;20489;-61
2021/03/06 07:43:20;;;;;;;14.10;9.88;;;;;;;3.23;60.07;101602.31;5036612;28;20489;-61
2021/03/06 07:45:52;;;;;;;14.35;9.23;;;;;;;3.27;60.32;101601.75;5034627;28;20038;-60
2021/03/06 07:48:21;;;;;;;11.10;8.73;;;;;;;3.29;60.66;101604.41;5035210;28;20037;-60
2021/03/06 07:50:52;;;;;;;16.42;9.25;;;;;;;3.29;60.17;101606.97;5035998;28;20083;-60
2021/03/06 07:53:19;;;;;;;16.15;8.85;;;;;;;3.31;60.02;101608.91;5018700;28;20034;-60
2021/03/06 07:55:47;;;;;;;10.43;8.27;;;;;;;3.32;60.33;101608.09;5035110;28;20030;-60
2021/03/06 07:58:20;;;;;;;13.25;9.18;;;;;;;3.34;60.81;101615.91;5034835;28;20044;-60
2021/03/06 08:00:57;;;;;;;15.18;8.95;;;;;;;3.35;60.37;101618.56;5018655;28;20034;-60
2021/03/06 08:03:34;;;;;;;13.88;9.18;;;;;;;3.38;60.29;101611.88;5035959;28;20056;-61
2021/03/06 08:06:17;;;;;;;13.88;9.02;;;;;;;3.38;60.19;101611.88;5036053;28;20034;-61
2021/03/06 08:08:52;;;;;;;12.60;9.52;;;;;;;3.40;60.55;101612.88;5017919;28;20061;-61
2021/03/06 08:11:33;;;;;;;13.88;8.52;;;;;;;3.41;60.88;101612.09;5036027;28;20059;-61
2021/03/06 08:14:02;;;;;;;16.20;9.05;;;;;;;3.41;60.33;101600.19;5018076;28;20576;-60
2021/03/06 08:16:31;;;;;;;14.82;8.07;;;;;;;3.43;60.60;101602.84;5016781;28;20041;-60
2021/03/06 08:19:11;;;;;;;11.27;7.95;;;;;;;3.42;60.66;101604.53;5017807;28;20029;-61
2021/03/06 08:21:47;;;;;;;12.70;8.50;;;;;;;3.44;60.36;101602.94;5034191;28;20052;-60
2021/03/06 08:24:18;;;;;;;11.52;8.70;;;;;;;3.45;60.32;101607.28;5035641;28;20128;-60
2021/03/06 08:27:08;;;;;;;15.48;9.13;;;;;;;3.45;60.33;101604.72;5017742;28;20573;-61
2021/03/06 08:29:44;;;;;;;15.55;9.88;;;;;;;3.47;60.17;101597.16;5034577;28;20037;-61
2021/03/06 08:32:24;;;;;;;13.65;8.30;;;;;;;3.49;60.83;101605.84;5035437;28;20045;-60
2021/03/06 08:34:59;;;;;;;13.05;8.13;;;;;;;3.48;60.27;101602.38;5034188;28;20381;-61
2021/03/06 08:37:29;;;;;;;11.00;8.10;;;;;;;3.49;60.50;101601.59;5035364;28;20392;-61
2021/03/06 08:40:09;;;;;;;13.77;9.43;;;;;;;3.52;60.29;101607.72;5033983;28;20037;-60
2021/03/06 08:42:48;;;;;;;12.02;8.23;;;;;;;3.53;60.32;101607.81;5033714;28;20044;-61
2021/03/06 08:45:22;;;;;;;12.90;9.10;;;;;;;3.54;60.24;101608.72;5035242;28;20025;-62
2021/03/06 08:48:08;;;;;;;;;;;;;;;3.55;60.07;101611.38;5035041;28;20045;-60
2021/03/06 08:50:37;;;;;;;15.07;8.48;;;;;;;3.56;60.25;101607.16;5017100;28;19917;-60
2021/03/06 08:53:11;;;;;;;16.98;9.20;;;;;;;3.58;60.22;101606.47;5033758;28;20041;-60
2021/03/06 08:55:42;;;;;;;13.30;9.20;;;;;;;3.60;60.86;101604.00;5034661;28;20040;-60
2021/03/06 08:58:18;;;;;;;12.32;9.07;;;;;;;3.63;60.43;101606.78;5034622;28;20034;-61
2021/03/06 09:00:47;;;;;;;11.18;9.27;;;;;;;3.66;60.64;101600.19;5034252;28;20041;-60
2021/03/06 09:03:26;;;;;;;11.18;8.77;;;;;;;3.69;60.42;101611.44;5033471;28;20049;-60
2021/03/06 09:05:54;;;;;;;14.45;9.10;;;;;;;3.71;60.53;101609.88;5033587;28;20091;-60
2021/03/06 09:08:26;;;;;;;14.07;9.40;;;;;;;3.73;60.25;101608.31;5034773;28;20037;-61
2021/03/06 09:11:01;;;;;;;18.15;10.93;;;;;;;3.74;60.47;101612.66;5035132;28;20036;-60
2021/03/06 09:13:33;;;;;;;17.02;10.57;;;;;;;3.77;60.05;101608.63;5033018;28;20041;-60
2021/03/06 09:16:06;;;;;;;17.15;9.88;;;;;;;3.80;60.60;101610.53;5033133;28;20033;-60
2021/03/06 09:18:39;;;;;;;14.07;10.57;;;;;;;3.81;60.63;101610.63;5049922;28;20508;-60
2021/03/06 09:21:15;;;;;;;14.38;10.25;;;;;;;3.84;60.61;101609.94;5034286;28;20030;-60
2021/03/06 09:23:45;;;;;;;17.77;10.45;;;;;;;3.87;60.33;101609.28;5017060;28;20037;-60
2021/03/06 09:26:18;;;;;;;14.82;9.60;;;;;;;3.88;59.97;101603.34;5033169;28;20036;-61
2021/03/06 09:28:49;;;;;;;12.13;9.07;;;;;;;3.90;60.92;101606.88;5034134;28;20049;-61
2021/03/06 09:31:31;;;;;;;21.13;10.30;;;;;;;3.91;60.66;101604.44;5034415;28;20033;-61
2021/03/06 09:34:02;;;;;;;13.55;9.75;;;;;;;3.94;60.37;101603.75;5034204;28;20040;-60
2021/03/06 09:36:38;;;;;;;19.35;10.38;;;;;;;3.95;60.24;101597.84;5033493;28;20176;-60
2021/03/06 09:39:09;;;;;;;13.90;9.55;;;;;;;3.97;60.22;101598.84;5033840;28;20048;-60
2021/03/06 09:41:42;;;;;;;15.48;10.07;;;;;;;3.99;60.85;101601.50;5034213;28;20041;-60
2021/03/06 09:44:12;;;;;;;12.65;10.40;;;;;;;4.00;60.84;101604.19;5032494;28;20041;-60
2021/03/06 09:46:41;;;;;;;12.68;9.13;;;;;;;4.02;60.77;101597.47;5032971;28;20025;-60
2021/03/06 09:49:10;;;;;;;12.27;9.13;;;;;;;4.03;60.33;101600.91;5032686;28;20043;-61
2021/03/06 09:51:50;;;;;;;15.30;9.55;;;;;;;4.04;60.06;101600.13;5015844;28;20038;-61
2021/03/06 09:54:17;;;;;;;14.45;10.05;;;;;;;4.06;60.39;101601.13;5032749;28;20073;-61
2021/03/06 09:56:56;;;;;;;11.32;8.63;;;;;;;4.07;60.11;101598.66;5032753;28;20468;-61
2021/03/06 09:59:24;;;;;;;14.40;9.90;;;;;;;4.08;60.38;101599.56;5032939;28;20037;-60
2021/03/06 10:01:51;;;;;;;13.40;8.20;;;;;;;4.07;60.36;101598.66;5015926;28;20058;-60
2021/03/06 10:04:22;;;;;;;12.20;9.27;;;;;;;4.08;60.20;101592.75;5016051;28;20037;-61
2021/03/06 10:06:56;;;;;;;12.27;8.68;;;;;;;4.11;60.39;101589.50;5032139;28;20033;-61
2021/03/06 10:09:25;;;;;;;;;;;;;;;4.09;60.62;101589.38;5033378;28;20048;-61
2021/03/06 10:12:03;;;;;;;14.77;9.18;;;;;;;4.10;60.60;101588.59;5032627;28;19921;-61
2021/03/06 10:14:34;;;;;;;11.50;8.48;;;;;;;4.09;60.40;101586.81;5032525;28;20037;-61
2021/03/06 10:17:06;;;;;;;12.60;7.95;;;;;;;4.09;60.33;101581.69;5032180;28;20045;-61
2021/03/06 10:19:49;;;;;;;8.95;7.95;;;;;;;4.10;60.59;101580.03;5033882;28;20041;-60
2021/03/06 10:22:22;;;;;;;10.55;8.15;;;;;;;4.13;60.83;101581.91;5032273;28;20033;-61
2021/03/06 10:24:58;;;;;;;11.10;7.55;;;;;;;4.15;60.36;101575.19;5033617;28;20038;-61
2021/03/06 10:27:37;;;;;;;9.98;7.95;;;;;;;4.15;60.13;101575.19;5033438;28;20037;-61
2021/03/06 10:30:21;;;;;;;11.30;6.97;;;;;;;4.15;60.16;101572.63;5031717;28;20386;-61
2021/03/06 10:32:55;;;;;;;12.70;7.35;;;;;;;4.17;60.04;101566.81;5015415;28;20065;-61
2021/03/06 10:35:39;;;;;;;10.00;7.40;;;;;;;4.18;60.51;101565.16;5033758;28;20042;-61
2021/03/06 10:38:18;;;;;;;9.27;6.53;;;;;;;4.19;60.24;101560.09;5031781;28;20157;-61
2021/03/06 10:40:59;;;;;;;8.90;6.75;;;;;;;4.20;60.50;101564.44;5035385;28;20359;-61
2021/03/06 10:43:28;;;;;;;10.85;6.88;;;;;;;4.20;60.71;101556.75;5036754;28;20041;-61
2021/03/06 10:46:27;;;;;;;9.10;7.22;;;;;;;4.21;59.76;101566.22;5037624;28;20029;-61
2021/03/06 10:49:08;;;;;;;10.40;7.35;;;;;;;4.22;60.41;101564.53;5036170;28;20037;-61
2021/03/06 10:51:50;;;;;;;8.55;6.35;;;;;;;4.22;60.74;101557.75;5036197;28;20033;-61
2021/03/06 10:54:18;;;;;;;9.85;7.18;;;;;;;4.23;60.53;101567.22;5036539;28;20128;-61
2021/03/06 10:57:01;;;;;;;11.90;7.82;;;;;;;4.24;60.49;101574.13;5035570;28;20515;-61
2021/03/06 10:59:33;;;;;;;9.63;7.03;;;;;;;4.25;60.04;101569.88;5035697;28;20041;-61
2021/03/06 11:02:02;;;;;;;10.07;6.57;;;;;;;4.28;59.97;101577.78;5035948;28;20136;-61
2021/03/06 11:04:36;;;;;;;9.38;6.35;;;;;;;4.29;60.39;101573.53;5037225;28;20040;-61
2021/03/06 11:07:05;;;;;;;8.20;6.15;;;;;;;4.30;59.80;101571.09;5035602;28;20038;-60
2021/03/06 11:09:32;;;;;;;9.52;5.97;;;;;;;4.31;60.33;101565.16;5018730;28;20049;-61
2021/03/06 11:12:22;;;;;;;8.00;5.93;;;;;;;4.30;60.19;101563.38;5035412;28;20037;-61
2021/03/06 11:15:11;;;;;;;8.13;6.25;;;;;;;4.31;60.10;101564.25;5036948;28;20037;-61
2021/03/06 11:17:40;;;;;;;9.05;6.30;;;;;;;4.33;60.21;101563.59;5035258;28;20033;-61
2021/03/06 11:20:12;;;;;;;9.18;6.25;;;;;;;4.35;60.51;101563.69;5036265;28;20056;-62
2021/03/06 11:22:46;;;;;;;8.02;6.32;;;;;;;4.35;59.93;101556.88;5036044;28;20060;-61
2021/03/06 11:25:13;;;;;;;9.43;6.97;;;;;;;4.36;60.32;101561.19;5036036;28;20393;-61
2021/03/06 11:27:45;;;;;;;8.80;6.10;;;;;;;4.35;60.49;101558.53;5036526;28;20136;-61
2021/03/06 11:30:14;;;;;;;8.05;6.00;;;;;;;4.35;59.84;101559.44;5036199;28;20037;-61
2021/03/06 11:32:46;;;;;;;8.95;6.93;;;;;;;4.37;60.32;101551.84;5035322;28;20076;-61
2021/03/06 11:35:12;;;;;;;8.07;6.47;;;;;;;4.38;60.36;101556.19;5036775;28;20041;-61
2021/03/06 11:37:43;;;;;;;8.95;5.82;;;;;;;4.39;60.17;101557.97;5035142;28;20554;-61
2021/03/06 11:40:14;;;;;;;8.85;6.22;;;;;;;4.40;59.92;101549.47;5035259;28;20041;-61
2021/03/06 11:42:45;;;;;;;9.20;7.07;;;;;;;4.40;60.66;101550.34;5036863;28;20171;-61
2021/03/06 11:45:15;;;;;;;8.43;6.25;;;;;;;4.42;60.68;101550.47;5035124;28;20043;-61
2021/03/06 11:47:48;;;;;;;8.32;6.07;;;;;;;4.44;59.91;101543.72;5035169;28;20124;-60
2021/03/06 11:50:18;;;;;;;8.85;6.38;;;;;;;4.44;59.95;101541.16;5018816;28;20056;-60